Time;durP1;ratioP1;P1;durP2;ratioP2;P2;SDS_P1;SDS_P2;PMS_P1;PMS_P2;Temp;Humidity;BMP_temperature;BMP_pressure;BME280_temperature;BME280_humidity;BME280_pressure;Samples;Min_cycle;Max_cycle;Signal;HPM_P1;HPM_P2
2022/06/17 00:00:55;;;;;;;7.70;6.03;;;26.00;46.40;;;;;;5020991;28;20223;-68
2022/06/17 00:03:28;;;;;;;9.93;5.60;;;26.00;46.90;;;;;;5016521;28;20656;-68
2022/06/17 00:05:59;;;;;;;6.83;5.50;;;26.00;46.50;;;;;;5021130;28;20633;-68
2022/06/17 00:08:49;;;;;;;6.77;5.13;;;26.00;46.60;;;;;;5027446;28;20206;-68
2022/06/17 00:11:27;;;;;;;5.80;5.00;;;26.00;46.60;;;;;;5025440;28;20637;-68
2022/06/17 00:13:55;;;;;;;7.93;5.23;;;26.00;46.60;;;;;;5027642;28;20210;-68
2022/06/17 00:16:33;;;;;;;6.90;5.17;;;25.90;46.60;;;;;;5026605;28;20190;-68
2022/06/17 00:19:01;;;;;;;7.73;4.93;;;25.90;46.60;;;;;;5028063;28;20207;-68
2022/06/17 00:21:37;;;;;;;7.93;4.90;;;26.00;46.70;;;;;;5024525;28;20563;-68
2022/06/17 00:24:26;;;;;;;7.00;4.90;;;25.90;46.60;;;;;;5023857;28;20511;-68
2022/06/17 00:26:56;;;;;;;5.47;4.37;;;25.90;46.70;;;;;;5021223;28;20238;-68
2022/06/17 00:29:31;;;;;;;7.30;4.80;;;25.90;46.80;;;;;;5028218;28;20202;-68
2022/06/17 00:31:59;;;;;;;7.60;5.03;;;25.90;46.80;;;;;;5022713;28;20592;-68
2022/06/17 00:34:29;;;;;;;7.53;4.43;;;25.90;47.00;;;;;;5006389;28;20275;-68
2022/06/17 00:37:02;;;;;;;6.40;4.10;;;25.90;47.00;;;;;;5027995;28;20215;-68
2022/06/17 00:39:35;;;;;;;4.77;4.30;;;25.80;47.00;;;;;;5020826;28;20621;-70
2022/06/17 00:42:14;;;;;;;5.07;4.23;;;25.80;47.00;;;;;;5023497;28;20223;-69
2022/06/17 00:45:02;;;;;;;4.93;3.90;;;25.80;47.10;;;;;;5026359;28;20191;-69
2022/06/17 00:47:39;;;;;;;4.63;4.23;;;25.80;47.20;;;;;;5026278;28;20269;-69
2022/06/17 00:50:36;;;;;;;6.13;4.13;;;25.80;47.20;;;;;;5019747;28;20191;-69
2022/06/17 00:53:25;;;;;;;4.83;4.43;;;25.80;47.30;;;;;;5025865;28;20256;-69
2022/06/17 00:56:04;;;;;;;4.93;4.13;;;25.80;47.30;;;;;;5023282;28;20195;-69
2022/06/17 00:59:14;;;;;;;5.87;3.97;;;25.80;47.20;;;;;;5026895;28;20237;-69
2022/06/17 01:02:05;;;;;;;4.67;3.90;;;25.80;47.10;;;;;;5016197;28;20226;-69
2022/06/17 01:04:41;;;;;;;4.63;3.87;;;25.80;47.00;;;;;;5024903;28;20206;-69
2022/06/17 01:07:31;;;;;;;5.10;4.17;;;25.80;47.00;;;;;;5026397;28;20248;-69
2022/06/17 01:10:08;;;;;;;5.67;3.97;;;25.80;47.00;;;;;;5024095;28;20192;-69
2022/06/17 01:12:53;;;;;;;8.60;4.17;;;25.70;46.90;;;;;;5025124;28;20653;-69
2022/06/17 01:15:28;;;;;;;5.73;4.17;;;25.80;46.90;;;;;;5018674;28;20211;-69
2022/06/17 01:17:59;;;;;;;4.83;4.17;;;25.70;46.80;;;;;;5021008;28;20187;-69
2022/06/17 01:20:30;;;;;;;8.53;4.30;;;25.70;46.80;;;;;;5025972;28;20199;-70
2022/06/17 01:23:10;;;;;;;5.43;4.30;;;25.70;46.80;;;;;;5026031;28;20214;-69
2022/06/17 01:25:47;;;;;;;4.63;4.13;;;25.70;46.80;;;;;;5027005;28;20194;-69
2022/06/17 01:28:17;;;;;;;6.90;4.73;;;25.70;46.90;;;;;;5021102;28;20207;-69
2022/06/17 01:30:54;;;;;;;8.10;4.00;;;25.70;46.80;;;;;;5025563;28;20211;-69
2022/06/17 01:33:44;;;;;;;6.97;4.43;;;25.70;46.90;;;;;;5023174;28;20202;-69
2022/06/17 01:36:19;;;;;;;6.40;4.60;;;25.70;47.00;;;;;;5023518;28;20845;-69
2022/06/17 01:38:52;;;;;;;6.37;4.53;;;25.70;47.00;;;;;;5022593;28;20225;-69
2022/06/17 01:41:25;;;;;;;6.00;4.50;;;25.70;47.10;;;;;;5024719;28;20221;-69
2022/06/17 01:44:10;;;;;;;6.80;4.47;;;25.70;47.10;;;;;;5022941;28;20287;-69
2022/06/17 01:46:41;;;;;;;7.17;4.10;;;25.60;47.10;;;;;;5021141;28;20191;-69
2022/06/17 01:49:33;;;;;;;8.43;4.37;;;25.70;47.30;;;;;;5008822;28;20191;-69
2022/06/17 01:52:13;;;;;;;5.17;3.97;;;25.70;47.20;;;;;;5018869;28;20712;-69
2022/06/17 01:54:57;;;;;;;7.60;4.40;;;25.60;47.20;;;;;;5034496;28;20273;-69
2022/06/17 01:57:53;;;;;;;6.37;4.43;;;25.60;47.30;;;;;;5018430;28;20256;-69
2022/06/17 02:00:23;;;;;;;4.70;4.30;;;25.60;47.30;;;;;;5003023;28;20242;-69
2022/06/17 02:03:22;;;;;;;5.50;4.17;;;25.60;47.30;;;;;;5021576;28;20218;-70
2022/06/17 02:06:16;;;;;;;6.33;4.23;;;25.60;47.30;;;;;;5026956;28;20207;-69
2022/06/17 02:08:46;;;;;;;7.97;4.57;;;25.60;47.30;;;;;;5025455;28;20652;-69
2022/06/17 02:11:17;;;;;;;8.43;4.53;;;25.60;47.30;;;;;;5025898;28;20191;-69
2022/06/17 02:13:47;;;;;;;9.20;5.23;;;25.60;47.30;;;;;;5026163;28;20203;-69
2022/06/17 02:16:20;;;;;;;5.17;4.57;;;25.50;47.20;;;;;;5018229;28;20210;-70
2022/06/17 02:18:48;;;;;;;4.97;4.50;;;25.60;47.30;;;;;;5007059;28;20199;-69
2022/06/17 02:21:32;;;;;;;5.10;4.10;;;;;;;;;;5026690;28;20211;-70
2022/06/17 02:24:05;;;;;;;5.10;4.10;;;;;;;;;;5021802;28;20201;-69
2022/06/17 02:26:34;;;;;;;7.10;4.50;;;;;;;;;;5020321;28;20302;-69
2022/06/17 02:29:09;;;;;;;6.37;4.50;;;;;;;;;;5024433;28;20195;-69
2022/06/17 02:31:39;;;;;;;4.93;4.00;;;;;;;;;;5026198;28;20194;-69
2022/06/17 02:34:14;;;;;;;5.50;4.47;;;;;;;;;;5036631;28;20639;-69
2022/06/17 02:36:43;;;;;;;5.43;4.63;;;;;;;;;;5021016;28;20191;-69
2022/06/17 02:39:14;;;;;;;5.37;4.47;;;;;;;;;;5022152;28;20214;-69
2022/06/17 02:41:45;;;;;;;9.40;4.53;;;;;;;;;;5025307;28;20231;-70
2022/06/17 02:44:16;;;;;;;6.13;4.33;;;;;;;;;;5020162;28;20199;-69
2022/06/17 02:46:46;;;;;;;4.70;4.30;;;;;;;;;;5023877;28;20613;-70
2022/06/17 02:49:28;;;;;;;5.37;4.50;;;;;;;;;;5024919;28;20210;-70
2022/06/17 02:51:59;;;;;;;5.23;4.03;;;;;;;;;;5016588;28;20207;-69
2022/06/17 02:54:49;;;;;;;6.80;4.60;;;;;;;;;;5024601;28;20735;-69
2022/06/17 02:57:23;;;;;;;6.93;4.33;;;;;;;;;;5023334;28;20184;-69
2022/06/17 02:59:53;;;;;;;4.50;4.10;;;;;;;;;;5024281;28;20237;-69
2022/06/17 03:02:26;;;;;;;4.80;4.33;;;;;;;;;;5003903;28;20650;-69
2022/06/17 03:04:54;;;;;;;4.73;4.20;;;;;;;;;;5025535;28;20210;-70
2022/06/17 03:07:31;;;;;;;6.90;4.20;;;;;;;;;;5024706;28;20206;-70
2022/06/17 03:10:07;;;;;;;5.17;4.67;;;;;;;;;;5022600;28;20559;-70
2022/06/17 03:12:34;;;;;;;5.73;4.43;;;;;;;;;;5024459;28;20235;-69
2022/06/17 03:15:04;;;;;;;4.73;4.20;;;;;;;;;;5019840;28;20701;-70
2022/06/17 03:17:39;;;;;;;5.00;4.50;;;;;;;;;;5024797;28;20292;-69
2022/06/17 03:20:08;;;;;;;7.57;4.33;;;;;;;;;;5017109;28;20210;-69
2022/06/17 03:22:38;;;;;;;4.20;3.80;;;;;;;;;;5020915;28;20215;-69
2022/06/17 03:25:18;;;;;;;4.77;4.10;;;;;;;;;;5022421;28;20199;-69
2022/06/17 03:27:53;;;;;;;4.77;4.30;;;;;;;;;;5015360;28;20219;-69
2022/06/17 03:30:25;;;;;;;6.43;3.90;;;;;;;;;;5017850;28;20191;-66
2022/06/17 03:33:17;;;;;;;4.63;4.13;;;;;;;;;;5024815;28;20195;-66
2022/06/17 03:35:51;;;;;;;5.23;4.10;;;;;;;;;;4992778;28;20223;-66
2022/06/17 03:38:34;;;;;;;4.90;3.90;;;;;;;;;;5019093;28;20242;-66
2022/06/17 03:41:06;;;;;;;4.37;3.97;;;;;;;;;;5024466;28;20238;-66
2022/06/17 03:43:53;;;;;;;4.97;4.10;;;;;;;;;;5026347;28;20248;-66
2022/06/17 03:46:26;;;;;;;5.33;3.80;;;;;;;;;;5029347;28;20212;-66
2022/06/17 03:49:10;;;;;;;4.07;3.77;;;;;;;;;;5027850;28;20297;-66
2022/06/17 03:51:43;;;;;;;5.60;4.00;;;;;;;;;;5022647;28;20666;-67
2022/06/17 03:54:17;;;;;;;4.37;3.93;;;;;;;;;;5023470;28;20203;-66
2022/06/17 03:56:51;;;;;;;4.10;3.70;;;;;;;;;;5026661;28;20206;-66
2022/06/17 03:59:23;;;;;;;4.00;3.60;;;;;;;;;;5027170;28;20242;-66
2022/06/17 04:02:11;;;;;;;4.37;3.80;;;;;;;;;;5028336;28;20245;-69
2022/06/17 04:04:41;;;;;;;4.53;3.73;;;;;;;;;;5022499;28;20194;-69
2022/06/17 04:07:09;;;;;;;4.73;4.23;;;;;;;;;;5027677;28;20199;-70
2022/06/17 04:09:38;;;;;;;4.13;3.73;;;;;;;;;;5028524;28;20194;-70
2022/06/17 04:12:19;;;;;;;4.27;3.80;;;;;;;;;;5026836;28;20219;-69
2022/06/17 04:14:46;;;;;;;4.63;3.50;;;;;;;;;;5024912;28;20229;-69
2022/06/17 04:17:26;;;;;;;4.73;3.73;;;;;;;;;;5026830;28;20668;-69
2022/06/17 04:20:12;;;;;;;3.87;3.20;;;;;;;;;;5027366;28;20195;-69
2022/06/17 04:22:40;;;;;;;3.97;3.43;;;;;;;;;;5027799;28;20219;-69
2022/06/17 04:25:10;;;;;;;4.40;3.60;;;;;;;;;;5023492;28;20765;-67
2022/06/17 04:27:59;;;;;;;6.10;4.33;;;;;;;;;;5011750;28;20650;-67
2022/06/17 04:30:29;;;;;;;4.17;3.70;;;;;;;;;;5028280;28;20270;-66
2022/06/17 04:33:01;;;;;;;4.37;3.60;;;;;;;;;;5028353;28;20196;-66
2022/06/17 04:35:29;;;;;;;7.53;4.00;;;;;;;;;;5043594;28;20306;-69
2022/06/17 04:38:00;;;;;;;3.90;3.50;;;;;;;;;;5022535;28;20237;-69
2022/06/17 04:40:46;;;;;;;5.33;3.80;;;;;;;;;;5022130;28;20293;-69
2022/06/17 04:43:47;;;;;;;6.17;3.90;;;;;;;;;;5027068;28;20652;-68
2022/06/17 04:46:39;;;;;;;4.00;3.57;;;;;;;;;;5025792;28;20592;-67
2022/06/17 04:49:17;;;;;;;4.63;4.10;;;;;;;;;;5024866;28;20195;-67
2022/06/17 04:51:45;;;;;;;5.80;3.70;;;;;;;;;;5024432;28;20219;-67
2022/06/17 04:54:12;;;;;;;4.47;3.80;;;;;;;;;;5020019;28;20195;-67
2022/06/17 04:56:42;;;;;;;5.33;4.13;;;;;;;;;;5028789;28;20195;-68
2022/06/17 04:59:19;;;;;;;4.47;4.07;;;;;;;;;;5028017;28;20226;-68
2022/06/17 05:01:47;;;;;;;6.50;4.40;;;;;;;;;;5027958;28;20223;-69
2022/06/17 05:04:14;;;;;;;5.50;4.00;;;;;;;;;;5015844;28;20677;-67
2022/06/17 05:06:42;;;;;;;6.93;4.27;;;;;;;;;;5026954;28;20195;-69
2022/06/17 05:09:29;;;;;;;87.57;29.97;;;;;;;;;;5027063;28;20947;-69
2022/06/17 05:12:00;;;;;;;71.40;21.60;;;;;;;;;;5025914;28;20202;-66
2022/06/17 05:14:45;;;;;;;32.27;12.47;;;;;;;;;;5022045;28;20219;-66
2022/06/17 05:17:12;;;;;;;12.90;7.83;;;;;;;;;;5026601;28;20801;-69
2022/06/17 05:19:40;;;;;;;11.97;6.67;;;;;;;;;;5025756;28;20203;-69
2022/06/17 05:22:12;;;;;;;12.60;6.73;;;;;;;;;;5025666;28;20222;-66
2022/06/17 05:24:40;;;;;;;9.57;5.83;;;;;;;;;;5025712;28;20648;-66
2022/06/17 05:27:08;;;;;;;10.03;5.60;;;;;;;;;;5023813;28;20226;-67
2022/06/17 05:29:35;;;;;;;8.87;5.40;;;;;;;;;;5027674;28;20672;-67
2022/06/17 05:32:04;;;;;;;7.77;5.30;;;;;;;;;;5023267;28;20202;-66
2022/06/17 05:34:32;;;;;;;9.93;5.80;;;;;;;;;;5026736;28;20214;-66
2022/06/17 05:37:07;;;;;;;7.60;5.17;;;;;;;;;;5027031;28;20199;-69
2022/06/17 05:39:38;;;;;;;7.87;5.37;;;;;;;;;;5019998;28;20215;-69
2022/06/17 05:42:07;;;;;;;6.37;5.30;;;;;;;;;;5020641;28;20261;-66
2022/06/17 05:44:36;;;;;;;8.33;5.10;;;;;;;;;;5027266;28;20210;-65
2022/06/17 05:47:06;;;;;;;5.67;5.13;;;;;;;;;;5025856;28;20199;-67
2022/06/17 05:49:38;;;;;;;6.80;5.10;;;;;;;;;;5024453;28;20697;-67
2022/06/17 05:52:10;;;;;;;7.90;5.03;;;;;;;;;;5020877;28;20218;-65
2022/06/17 05:54:40;;;;;;;5.00;4.40;;;;;;;;;;5023367;28;20202;-65
2022/06/17 05:57:09;;;;;;;8.10;4.83;;;;;;;;;;5027177;28;20209;-67
2022/06/17 05:59:38;;;;;;;6.63;4.93;;;;;;;;;;5026968;28;20941;-67
2022/06/17 06:02:11;;;;;;;8.00;4.77;;;;;;;;;;5020699;28;20680;-70
2022/06/17 06:04:44;;;;;;;5.33;4.73;;;;;;;;;;5028581;28;20213;-70
2022/06/17 06:07:15;;;;;;;7.90;5.40;;;;;;;;;;5026227;28;20647;-66
2022/06/17 06:09:42;;;;;;;8.00;5.00;;;;;;;;;;5026277;28;20199;-66
2022/06/17 06:12:11;;;;;;;5.57;4.27;;;24.80;46.10;;;;;;5023073;28;20544;-66
2022/06/17 06:14:38;;;;;;;5.30;4.03;;;25.00;46.70;;;;;;5022801;28;20281;-65
2022/06/17 06:17:10;;;;;;;6.03;4.10;;;25.00;46.80;;;;;;5042101;28;20198;-69
2022/06/17 06:19:42;;;;;;;4.83;4.30;;;24.90;46.90;;;;;;5023692;28;20207;-69
2022/06/17 06:22:10;;;;;;;5.30;3.97;;;24.90;46.80;;;;;;5023561;28;20207;-68
2022/06/17 06:24:44;;;;;;;5.07;3.90;;;24.90;46.80;;;;;;5025452;28;20706;-69
2022/06/17 06:27:14;;;;;;;5.67;3.73;;;25.00;46.90;;;;;;5022754;28;20207;-66
2022/06/17 06:29:45;;;;;;;6.73;3.73;;;24.90;46.90;;;;;;5021305;28;20257;-66
2022/06/17 06:32:12;;;;;;;6.80;3.97;;;25.00;47.00;;;;;;5023889;28;20194;-69
2022/06/17 06:34:47;;;;;;;3.43;3.13;;;25.00;46.40;;;;;;5012267;28;20245;-67
2022/06/17 06:37:16;;;;;;;6.07;3.63;;;25.00;46.90;;;;;;5023418;28;20195;-67
2022/06/17 06:39:48;;;;;;;13.07;5.10;;;25.00;47.60;;;;;;5021629;28;20223;-71
2022/06/17 06:42:19;;;;;;;7.40;4.23;;;25.00;48.20;;;;;;5022703;28;20218;-71
2022/06/17 06:44:48;;;;;;;9.00;3.90;;;25.00;48.10;;;;;;5026094;28;20226;-71
2022/06/17 06:47:38;;;;;;;5.90;3.73;;;25.00;47.90;;;;;;5037809;28;20238;-70
2022/06/17 06:50:12;;;;;;;6.93;4.07;;;25.00;47.80;;;;;;5013948;28;20180;-71
2022/06/17 06:52:43;;;;;;;5.73;4.17;;;25.10;48.00;;;;;;5024512;28;20609;-68
2022/06/17 06:55:18;;;;;;;8.43;4.40;;;25.10;47.90;;;;;;5022107;28;20249;-70
2022/06/17 06:57:52;;;;;;;5.57;4.27;;;25.10;48.00;;;;;;5023844;28;20202;-68
2022/06/17 07:00:38;;;;;;;5.40;3.93;;;25.10;47.70;;;;;;5025254;28;20590;-67
2022/06/17 07:03:09;;;;;;;4.63;3.70;;;25.10;47.70;;;;;;5037958;28;20234;-69
2022/06/17 07:05:43;;;;;;;5.40;4.13;;;25.20;47.60;;;;;;5008139;28;20213;-68
2022/06/17 07:08:13;;;;;;;8.30;3.93;;;25.20;47.40;;;;;;5024001;28;20209;-67
2022/06/17 07:10:50;;;;;;;8.37;4.40;;;25.20;47.30;;;;;;5024394;28;20428;-66
2022/06/17 07:13:21;;;;;;;5.33;4.03;;;25.20;47.80;;;;;;5023958;28;20203;-68
2022/06/17 07:15:54;;;;;;;5.27;3.83;;;25.20;47.40;;;;;;5024899;28;20214;-69
2022/06/17 07:18:26;;;;;;;8.93;4.20;;;25.30;46.80;;;;;;5028907;28;20300;-68
2022/06/17 07:21:12;;;;;;;6.27;3.40;;;25.30;47.30;;;;;;5026898;28;20260;-66
2022/06/17 07:23:45;;;;;;;6.03;3.70;;;25.40;47.10;;;;;;5026469;28;20211;-68
2022/06/17 07:26:23;;;;;;;8.40;3.40;;;25.40;46.90;;;;;;5023465;28;20644;-69
2022/06/17 07:28:54;;;;;;;6.20;3.57;;;25.40;46.80;;;;;;5022408;28;20751;-69
2022/06/17 07:31:22;;;;;;;3.27;2.70;;;25.40;46.60;;;;;;5024517;28;20199;-69
2022/06/17 07:33:56;;;;;;;5.23;2.90;;;25.40;46.50;;;;;;5024754;28;20199;-69
2022/06/17 07:42:15;;;;;;;5.93;2.90;;;25.40;46.90;;;;;;5020253;28;20225;-68
2022/06/17 07:44:47;;;;;;;3.47;2.80;;;25.50;45.70;;;;;;5023851;28;20302;-69
2022/06/17 07:47:22;;;;;;;5.83;3.10;;;25.40;46.10;;;;;;5028830;28;20199;-69
2022/06/17 07:49:52;;;;;;;4.63;2.80;;;25.50;46.10;;;;;;5026303;28;20198;-69
2022/06/17 07:52:21;;;;;;;3.40;3.10;;;25.50;46.10;;;;;;5021350;28;20239;-68
2022/06/17 07:54:48;;;;;;;5.27;3.10;;;25.50;46.00;;;;;;5028866;28;20217;-68
2022/06/17 07:57:16;;;;;;;5.47;3.20;;;25.50;46.00;;;;;;5026265;28;20205;-70
2022/06/17 07:59:43;;;;;;;4.57;2.90;;;25.50;46.10;;;;;;5029416;28;20301;-72
2022/06/17 08:02:10;;;;;;;3.90;2.87;;;25.50;46.10;;;;;;5024786;28;20806;-70
2022/06/17 08:04:38;;;;;;;5.73;2.60;;;25.60;45.50;;;;;;5029157;28;20195;-70
2022/06/17 08:07:06;;;;;;;3.17;2.53;;;25.60;46.00;;;;;;5025591;28;20821;-70
2022/06/17 08:09:34;;;;;;;2.57;2.07;;;25.60;45.40;;;;;;5029308;28;20209;-68
2022/06/17 08:12:07;;;;;;;3.20;2.90;;;25.60;45.20;;;;;;5026853;28;20227;-69
2022/06/17 08:14:49;;;;;;;5.03;2.57;;;25.60;45.70;;;;;;5023086;28;20194;-70
2022/06/17 08:17:17;;;;;;;4.30;2.37;;;25.60;46.40;;;;;;5024527;28;20302;-70
2022/06/17 08:19:48;;;;;;;4.47;2.60;;;25.60;45.50;;;;;;5026949;28;20218;-70
2022/06/17 08:22:17;;;;;;;6.63;2.50;;;25.60;45.90;;;;;;5020083;28;21037;-70
2022/06/17 08:24:47;;;;;;;3.17;2.50;;;25.60;45.60;;;;;;5027411;28;20215;-70
2022/06/17 08:27:16;;;;;;;4.93;2.70;;;25.60;45.60;;;;;;5021600;28;20207;-70
2022/06/17 08:29:43;;;;;;;6.40;2.43;;;25.70;45.80;;;;;;5005377;28;20704;-71
2022/06/17 08:35:09;;;;;;;3.50;2.10;;;25.70;45.50;;;;;;5026085;28;20195;-70
2022/06/17 08:37:42;;;;;;;3.00;2.50;;;25.70;45.70;;;;;;5028603;28;20620;-70
2022/06/17 08:40:41;;;;;;;2.80;1.90;;;25.70;45.70;;;;;;5034088;28;20246;-70
2022/06/17 08:43:31;;;;;;;3.80;2.07;;;25.70;45.30;;;;;;5024899;28;20202;-70
2022/06/17 08:46:00;;;;;;;3.67;2.07;;;25.70;45.80;;;;;;5023886;28;20195;-70
2022/06/17 08:48:33;;;;;;;5.30;2.20;;;25.70;45.50;;;;;;5027933;28;20203;-70
2022/06/17 08:51:09;;;;;;;2.63;2.27;;;25.70;45.40;;;;;;5024669;28;20211;-70
2022/06/17 08:54:05;;;;;;;3.10;2.50;;;25.70;45.50;;;;;;5032079;28;20204;-70
2022/06/17 08:56:58;;;;;;;3.90;2.20;;;25.70;45.70;;;;;;5018884;28;20958;-71
2022/06/17 08:59:31;;;;;;;5.13;2.60;;;25.70;45.30;;;;;;5040568;28;20235;-70
2022/06/17 09:02:19;;;;;;;4.53;2.90;;;25.70;44.50;;;;;;5030869;28;20233;-70
2022/06/17 09:05:33;;;;;;;4.70;2.40;;;25.60;43.90;;;;;;5034093;28;20191;-69
2022/06/17 09:08:36;;;;;;;4.77;2.40;;;25.60;43.80;;;;;;5023529;28;20210;-69
2022/06/17 09:11:55;;;;;;;3.10;2.40;;;25.60;44.20;;;;;;5028127;28;20253;-69
2022/06/17 09:15:15;;;;;;;2.40;2.07;;;25.60;44.50;;;;;;4954363;28;20255;-70
2022/06/17 09:18:05;;;;;;;3.33;2.30;;;25.60;44.70;;;;;;4940721;28;20221;-69
2022/06/17 09:20:46;;;;;;;4.00;2.40;;;25.60;44.80;;;;;;5027520;28;20202;-70
2022/06/17 09:23:21;;;;;;;3.13;2.40;;;25.60;44.80;;;;;;5028349;28;20731;-70
2022/06/17 09:26:06;;;;;;;3.67;2.03;;;25.70;44.90;;;;;;5025471;28;20207;-71
2022/06/17 09:28:47;;;;;;;3.70;2.50;;;25.70;45.00;;;;;;5026970;28;20191;-70
2022/06/17 09:31:20;;;;;;;3.90;2.50;;;25.70;44.50;;;;;;5022597;28;20640;-70
2022/06/17 09:34:23;;;;;;;3.77;2.30;;;25.80;45.10;;;;;;5024012;28;20249;-70
2022/06/17 09:37:26;;;;;;;3.87;2.30;;;25.80;45.70;;;;;;5018990;28;20390;-71
2022/06/17 09:40:06;;;;;;;3.20;2.20;;;25.70;44.80;;;;;;5023098;28;20659;-69
2022/06/17 09:42:47;;;;;;;3.67;2.20;;;25.80;45.00;;;;;;5025189;28;20242;-70
2022/06/17 09:45:38;;;;;;;3.80;2.30;;;25.80;45.00;;;;;;5026633;28;20615;-70
2022/06/17 09:48:05;;;;;;;3.17;2.33;;;25.80;45.10;;;;;;5023721;28;20199;-70
2022/06/17 09:50:45;;;;;;;2.00;1.80;;;25.80;45.10;;;;;;5021442;28;20211;-70
2022/06/17 09:53:30;;;;;;;5.30;2.30;;;25.80;45.40;;;;;;5026970;28;20198;-66
2022/06/17 09:56:07;;;;;;;4.03;2.23;;;26.00;45.60;;;;;;5020808;28;20213;-66
2022/06/17 09:58:39;;;;;;;2.83;2.17;;;26.10;45.60;;;;;;5026617;28;20230;-66
2022/06/17 10:01:07;;;;;;;7.00;1.90;;;26.20;45.70;;;;;;5025131;28;20540;-63
2022/06/17 10:03:37;;;;;;;2.37;1.90;;;26.30;45.90;;;;;;5022833;28;20442;-65
2022/06/17 10:06:06;;;;;;;2.17;1.97;;;26.40;45.90;;;;;;5023197;28;20528;-66
2022/06/17 10:08:49;;;;;;;2.47;1.70;;;26.50;45.80;;;;;;5023761;28;20450;-67
2022/06/17 10:11:30;;;;;;;2.87;1.90;;;26.50;45.60;;;;;;5023577;28;20203;-64
2022/06/17 10:14:30;;;;;;;1.93;1.80;;;26.70;45.70;;;;;;5020061;28;20237;-64
2022/06/17 10:20:49;;;;;;;2.20;1.70;;;26.80;45.50;;;;;;5025948;28;20826;-65
2022/06/17 10:24:06;;;;;;;2.60;1.73;;;26.90;46.20;;;;;;5022132;28;20687;-68
2022/06/17 10:27:07;;;;;;;2.07;1.67;;;27.00;46.20;;;;;;4957592;28;20216;-68
2022/06/17 10:30:32;;;;;;;3.83;1.80;;;27.00;46.00;;;;;;4960401;28;20213;-69
2022/06/17 10:33:03;;;;;;;2.80;1.80;;;27.00;46.00;;;;;;4963748;28;20214;-68
2022/06/17 10:35:38;;;;;;;5.17;1.53;;;27.10;46.00;;;;;;4962797;28;20686;-68
2022/06/17 10:38:16;;;;;;;4.27;1.80;;;27.20;46.00;;;;;;4958604;28;20870;-67
2022/06/17 10:40:48;;;;;;;2.57;1.57;;;27.30;46.10;;;;;;4964619;28;20271;-65
2022/06/17 10:43:34;;;;;;;3.37;1.73;;;27.30;46.00;;;;;;4964267;28;20251;-64
2022/06/17 10:46:13;;;;;;;1.97;1.77;;;27.30;45.80;;;;;;4979253;28;20204;-64
2022/06/17 10:49:00;;;;;;;4.63;2.07;;;27.40;45.80;;;;;;4975466;28;20204;-64
2022/06/17 10:51:29;;;;;;;1.73;1.60;;;27.40;45.70;;;;;;5038686;28;20202;-64
2022/06/17 10:54:13;;;;;;;2.40;1.60;;;27.40;45.60;;;;;;5042806;28;20245;-64
2022/06/17 10:57:24;;;;;;;2.30;1.70;;;27.40;45.60;;;;;;5040977;28;20554;-64
2022/06/17 10:59:57;;;;;;;2.17;1.77;;;27.40;45.60;;;;;;5031590;28;20234;-64
2022/06/17 11:02:31;;;;;;;2.20;1.50;;;27.40;45.70;;;;;;5042854;28;20228;-64
2022/06/17 11:05:07;;;;;;;2.00;1.80;;;27.40;45.70;;;;;;5044010;28;20205;-64
2022/06/17 11:07:47;;;;;;;2.63;1.87;;;27.40;45.70;;;;;;5045430;28;20201;-64
2022/06/17 11:10:23;;;;;;;1.97;1.80;;;27.40;45.60;;;;;;5042865;28;20209;-64
2022/06/17 11:13:04;;;;;;;2.47;1.70;;;27.40;45.70;;;;;;5045225;28;20570;-63
2022/06/17 11:15:36;;;;;;;2.20;2.00;;;27.50;45.70;;;;;;5021286;28;20202;-64
2022/06/17 11:18:09;;;;;;;1.67;1.57;;;27.40;45.60;;;;;;5040264;28;20197;-64
2022/06/17 11:20:38;;;;;;;2.00;1.80;;;27.50;45.60;;;;;;5041954;28;20206;-64
2022/06/17 11:23:30;;;;;;;3.53;1.57;;;27.50;45.60;;;;;;5040778;28;20679;-66
2022/06/17 11:26:20;;;;;;;2.20;1.80;;;27.50;45.90;;;;;;5044130;28;20631;-64
2022/06/17 11:28:55;;;;;;;1.57;1.47;;;27.50;46.00;;;;;;5045882;28;20643;-68
2022/06/17 11:31:22;;;;;;;1.80;1.60;;;27.60;46.10;;;;;;5044264;28;20198;-67
2022/06/17 11:33:52;;;;;;;1.57;1.47;;;27.60;45.70;;;;;;5046554;28;20202;-67
2022/06/17 11:36:22;;;;;;;1.53;1.40;;;27.80;45.80;;;;;;5041684;28;20193;-67
2022/06/17 11:38:50;;;;;;;2.30;1.40;;;27.80;46.40;;;;;;5025215;28;20229;-70
2022/06/17 11:41:22;;;;;;;2.90;1.57;;;27.80;46.40;;;;;;5044823;28;20199;-66
2022/06/17 11:43:50;;;;;;;1.50;1.40;;;27.90;46.50;;;;;;5046006;28;20222;-65
2022/06/17 11:46:22;;;;;;;1.73;1.43;;;27.90;46.50;;;;;;5043054;28;20911;-65
2022/06/17 11:48:56;;;;;;;3.23;1.60;;;28.00;46.40;;;;;;5045841;28;20198;-65
2022/06/17 11:51:34;;;;;;;2.10;1.77;;;28.00;46.30;;;;;;5042460;28;20202;-69
2022/06/17 11:54:00;;;;;;;3.23;1.90;;;28.10;46.30;;;;;;5041777;28;20730;-70
2022/06/17 11:56:43;;;;;;;2.77;1.53;;;28.10;46.20;;;;;;5027353;28;20290;-68
2022/06/17 11:59:42;;;;;;;2.50;1.50;;;28.20;46.30;;;;;;5045186;28;20241;-67
2022/06/17 12:02:09;;;;;;;1.90;1.70;;;28.20;46.30;;;;;;5022681;28;20226;-67
2022/06/17 12:04:49;;;;;;;1.87;1.73;;;28.30;46.40;;;;;;5050791;28;20529;-66
2022/06/17 12:07:45;;;;;;;1.50;1.40;;;28.30;46.40;;;;;;5048314;28;20202;-65
2022/06/17 12:10:49;;;;;;;1.93;1.57;;;28.40;46.40;;;;;;5045913;28;20187;-67
2022/06/17 12:13:23;;;;;;;2.13;1.80;;;;;;;;;;5047202;28;20252;-69
2022/06/17 12:15:56;;;;;;;1.83;1.60;;;28.50;45.80;;;;;;5047512;28;20554;-68
2022/06/17 12:18:36;;;;;;;2.17;1.67;;;;;;;;;;5048725;28;20643;-67
2022/06/17 12:21:25;;;;;;;2.37;1.80;;;;;;;;;;5042725;28;20773;-69
2022/06/17 12:24:24;;;;;;;2.10;1.70;;;28.60;45.70;;;;;;5045489;28;20543;-67
2022/06/17 12:27:18;;;;;;;1.83;1.60;;;28.70;45.70;;;;;;5039631;28;20210;-67
2022/06/17 12:30:17;;;;;;;1.53;1.43;;;28.80;45.80;;;;;;5041121;28;20198;-69
2022/06/17 12:33:00;;;;;;;1.33;1.23;;;28.80;46.30;;;;;;5047626;28;20203;-65
2022/06/17 12:35:39;;;;;;;1.83;1.67;;;28.80;45.20;;;;;;5026646;28;20193;-65
2022/06/17 12:38:22;;;;;;;3.27;1.73;;;28.80;45.70;;;;;;5021543;28;20210;-65
2022/06/17 12:40:59;;;;;;;3.67;1.90;;;28.80;45.60;;;;;;5045203;28;20203;-65
2022/06/17 12:43:29;;;;;;;1.53;1.30;;;28.80;45.50;;;;;;5041960;28;20237;-65
2022/06/17 12:46:03;;;;;;;3.70;1.40;;;28.80;45.50;;;;;;5048531;28;20494;-65
2022/06/17 12:48:49;;;;;;;2.10;1.30;;;28.80;45.50;;;;;;5048429;28;20193;-65
2022/06/17 12:54:53;;;;;;;1.53;1.30;;;28.80;45.50;;;;;;5042020;28;20201;-65
2022/06/17 12:57:49;;;;;;;1.40;1.30;;;28.80;45.50;;;;;;5049926;28;20198;-65
2022/06/17 13:00:37;;;;;;;1.90;1.50;;;28.80;45.50;;;;;;5039136;28;20230;-65
2022/06/17 13:03:47;;;;;;;1.47;1.37;;;28.80;46.20;;;;;;5060023;28;20239;-65
2022/06/17 13:06:54;;;;;;;1.67;1.33;;;28.80;45.00;;;;;;5065866;28;20193;-65
2022/06/17 13:09:53;;;;;;;1.40;1.30;;;28.80;45.00;;;;;;5066305;28;20227;-65
2022/06/17 13:12:40;;;;;;;1.77;1.50;;;28.80;45.50;;;;;;5062619;28;20229;-65
2022/06/17 13:15:16;;;;;;;3.30;1.47;;;28.80;44.90;;;;;;5041222;28;20398;-65
2022/06/17 13:18:09;;;;;;;1.17;1.07;;;28.80;45.40;;;;;;5044275;28;20259;-65
2022/06/17 13:20:53;;;;;;;1.70;1.60;;;28.90;45.50;;;;;;5048813;28;20185;-65
2022/06/17 13:23:49;;;;;;;1.57;1.30;;;28.80;45.40;;;;;;5064912;28;20190;-65
2022/06/17 13:26:47;;;;;;;1.23;1.17;;;28.90;45.50;;;;;;5061249;28;20205;-65
2022/06/17 13:29:53;;;;;;;1.50;1.40;;;28.90;45.40;;;;;;5058443;28;20197;-65
2022/06/17 13:32:27;;;;;;;1.40;1.30;;;28.90;45.40;;;;;;5062937;28;20259;-65
2022/06/17 13:35:12;;;;;;;1.50;1.40;;;28.90;45.40;;;;;;5065663;28;20197;-65
2022/06/17 13:38:10;;;;;;;1.93;1.43;;;28.90;45.30;;;;;;5065749;28;20510;-65
2022/06/17 13:40:47;;;;;;;1.37;1.27;;;29.00;44.80;;;;;;5055581;28;20281;-65
2022/06/17 13:43:25;;;;;;;1.40;1.30;;;28.90;45.40;;;;;;5029575;28;20198;-65
2022/06/17 13:46:28;;;;;;;1.30;1.20;;;28.90;45.20;;;;;;5062938;28;20252;-65
2022/06/17 13:49:34;;;;;;;1.53;1.10;;;29.00;45.30;;;;;;5027676;28;20591;-65
2022/06/17 13:52:30;;;;;;;1.67;1.10;;;29.00;45.30;;;;;;5058936;28;20193;-65
2022/06/17 13:55:20;;;;;;;1.43;1.20;;;29.00;45.30;;;;;;5060966;28;20781;-65
2022/06/17 13:58:00;;;;;;;1.23;1.07;;;29.00;45.90;;;;;;5062533;28;20198;-65
2022/06/17 14:00:35;;;;;;;1.20;1.10;;;29.00;45.40;;;;;;5040016;28;20233;-65
2022/06/17 14:03:54;;;;;;;1.00;1.00;;;29.00;45.30;;;;;;5053262;28;20218;-65
2022/06/17 14:06:53;;;;;;;1.20;1.10;;;29.10;45.40;;;;;;5052488;28;20697;-65
2022/06/17 14:09:41;;;;;;;1.37;1.10;;;29.10;45.40;;;;;;5056997;28;20202;-65
2022/06/17 14:12:45;;;;;;;1.03;1.03;;;29.10;45.40;;;;;;5032161;28;20198;-65
2022/06/17 14:15:16;;;;;;;1.43;1.33;;;29.10;45.40;;;;;;5048605;28;20206;-65
2022/06/17 14:17:57;;;;;;;1.73;1.17;;;29.10;45.40;;;;;;5037881;28;20218;-66
2022/06/17 14:20:37;;;;;;;0.93;0.93;;;29.10;45.40;;;;;;5045125;28;20247;-66
2022/06/17 14:23:16;;;;;;;1.00;0.90;;;29.10;45.30;;;;;;5056375;28;20192;-65
2022/06/17 14:25:53;;;;;;;1.40;1.10;;;29.20;45.40;;;;;;5065794;28;20304;-65
2022/06/17 14:28:49;;;;;;;0.90;0.90;;;29.20;45.30;;;;;;5058150;28;20248;-66
2022/06/17 14:31:21;;;;;;;0.93;0.93;;;29.20;45.30;;;;;;4976624;28;20204;-66
2022/06/17 14:34:16;;;;;;;1.47;1.37;;;29.20;45.30;;;;;;5064521;28;20201;-65